»·PEaware :: TWY250 KMFR-KBFI

TWY250 :: KMFR-KBFI

FLIGHT INFORMATION

Flight Status: Arrived
Operator: Unknown
More flights by this operator :: More flights under this callsign
Pilot: Andrew J. (13363)
Aircraft: CESSNA 550 CITATION 2/S2/BRAVO
(C550)
More flights by this aircraft type
Origin: KMFR Rogue Valley Intl-Medford
United States
Destination: KBFI Boeing Field/King Co Intl
United States
More flights between these airports :: More routes between these airports
Route: +JKSN1 OED BTG OLM2
File this flight plan on PilotEdge
Remarks:
Altitude:
(Current/Filed)
30,000ft
Speed:
(Current/Filed)
410kts
Departed: 04-Jan-19 01:55 PM
Arrived: 04-Jan-19 02:58 PM
Distance/Time
Traveled:
310nm/1:03
Distance/Time
To Go:
Arrived

Flight Plot

Page will automatically refresh every two minutes.

Flight plan parsing failed; only flown route is shown


Map Options




Map Legend


Flown Route
Filed Route
Departure Airport
Arrival Airport
Navaid (VOR, NDB)
Fix

Horizontal Profiles

Position Reports

Time Latitude Longitude Heading Altitude Ground
Speed
04-Jan-19 13:28 42.375468 -122.877252 292 1320ft 0kts
04-Jan-19 13:29 42.375468 -122.877252 292 1320ft 0kts
04-Jan-19 13:30 42.375468 -122.877252 292 1320ft 0kts
04-Jan-19 13:31 42.375468 -122.877252 292 1320ft 0kts
04-Jan-19 13:32 42.375468 -122.877252 292 1320ft 0kts
04-Jan-19 13:33 42.375468 -122.877252 292 1320ft 0kts
04-Jan-19 13:34 42.375468 -122.877252 292 1320ft 0kts
04-Jan-19 13:35 42.375468 -122.877252 292 1320ft 0kts
04-Jan-19 13:36 42.375468 -122.877252 292 1320ft 0kts
04-Jan-19 13:37 42.375468 -122.877252 292 1320ft 0kts
04-Jan-19 13:38 42.375468 -122.877252 292 1320ft 0kts
04-Jan-19 13:39 42.375468 -122.877252 292 1320ft 0kts
04-Jan-19 13:40 42.375468 -122.877252 292 1320ft 0kts
04-Jan-19 13:41 42.375468 -122.877252 292 1320ft 0kts
04-Jan-19 13:42 42.375468 -122.877252 292 1320ft 0kts
04-Jan-19 13:43 42.375468 -122.877252 292 1320ft 0kts
04-Jan-19 13:44 42.375601 -122.877711 296 1320ft 0kts
04-Jan-19 13:45 42.375871 -122.878180 355 1320ft 6kts
04-Jan-19 13:46 42.376379 -122.876561 72 1320ft 2kts
04-Jan-19 13:47 42.378208 -122.876569 339 1320ft 13kts
04-Jan-19 13:48 42.381855 -122.878504 338 1320ft 13kts
04-Jan-19 13:49 42.384942 -122.880142 338 1320ft 9kts
04-Jan-19 13:50 42.385561 -122.880382 12 1320ft 0kts
04-Jan-19 13:51 42.385800 -122.880182 68 1320ft 0kts
04-Jan-19 13:52 42.385800 -122.880182 68 1320ft 0kts
04-Jan-19 13:53 42.386052 -122.879246 88 1320ft 6kts
04-Jan-19 13:54 42.366380 -122.871443 185 2739ft 153kts
04-Jan-19 13:55 42.374896 -122.929059 351 5440ft 239kts
04-Jan-19 13:56 42.439886 -122.923350 10 8665ft 252kts
04-Jan-19 13:57 42.510567 -122.909790 357 12837ft 263kts
04-Jan-19 13:58 42.585540 -122.903000 357 15987ft 280kts
04-Jan-19 13:59 42.664977 -122.895576 357 18718ft 294kts
04-Jan-19 14:00 42.749336 -122.887631 356 21111ft 310kts
04-Jan-19 14:01 42.837565 -122.879364 355 23212ft 324kts
04-Jan-19 14:02 42.929713 -122.870666 355 25087ft 337kts
04-Jan-19 14:03 43.025440 -122.861616 355 26708ft 350kts
04-Jan-19 14:04 43.124701 -122.852208 354 28105ft 362kts
04-Jan-19 14:05 43.226401 -122.842519 354 29259ft 373kts
04-Jan-19 14:06 43.333461 -122.832350 355 29941ft 394kts
04-Jan-19 14:07 43.446829 -122.821516 355 29947ft 422kts
04-Jan-19 14:08 43.566466 -122.809953 356 29948ft 436kts
04-Jan-19 14:09 43.688982 -122.798094 356 29949ft 443kts
04-Jan-19 14:10 43.812958 -122.786053 356 29958ft 447kts
04-Jan-19 14:11 43.936894 -122.773970 356 29963ft 449kts
04-Jan-19 14:12 44.062671 -122.761594 355 29965ft 450kts
04-Jan-19 14:13 44.187506 -122.749354 355 29952ft 449kts
04-Jan-19 14:14 44.311845 -122.737113 355 29954ft 448kts
04-Jan-19 14:15 44.378260 -122.730539 355 29952ft 448kts
04-Jan-19 14:16 44.502413 -122.718174 355 29948ft 447kts
04-Jan-19 14:17 44.626969 -122.705780 355 29950ft 447kts
04-Jan-19 14:18 44.750416 -122.693404 355 29952ft 447kts
04-Jan-19 14:19 44.875059 -122.680850 355 29953ft 446kts
04-Jan-19 14:20 44.997727 -122.668446 355 29958ft 446kts
04-Jan-19 14:21 45.118872 -122.656137 354 29963ft 445kts
04-Jan-19 14:22 45.242510 -122.643539 354 29963ft 443kts
04-Jan-19 14:23 45.364237 -122.631089 354 29966ft 442kts
04-Jan-19 14:24 45.487297 -122.618443 354 29967ft 441kts
04-Jan-19 14:25 45.609987 -122.605785 354 29969ft 440kts
04-Jan-19 14:26 45.732349 -122.593396 351 29970ft 437kts
04-Jan-19 14:27 45.848244 -122.616334 338 29972ft 420kts
04-Jan-19 14:28 45.962147 -122.644666 337 29422ft 399kts
04-Jan-19 14:29 46.070085 -122.671781 337 28085ft 393kts
04-Jan-19 14:30 46.170981 -122.697270 337 26807ft 401kts
04-Jan-19 14:31 46.282996 -122.725539 338 25397ft 412kts
04-Jan-19 14:32 46.396897 -122.754322 338 24055ft 417kts
04-Jan-19 14:33 46.508511 -122.782681 338 23127ft 403kts
04-Jan-19 14:34 46.618723 -122.810818 339 22260ft 398kts
04-Jan-19 14:35 46.724971 -122.838074 338 21029ft 382kts
04-Jan-19 14:36 46.828622 -122.864825 339 19830ft 376kts
04-Jan-19 14:37 46.930848 -122.891185 339 18944ft 365kts
04-Jan-19 14:38 47.027869 -122.831247 36 18228ft 409kts
04-Jan-19 14:39 47.112282 -122.722564 36 17195ft 411kts
04-Jan-19 14:40 47.196357 -122.614758 36 16188ft 391kts
04-Jan-19 14:41 47.277337 -122.510541 37 14906ft 386kts
04-Jan-19 14:42 47.368335 -122.472306 350 13362ft 322kts
04-Jan-19 14:43 47.454772 -122.475616 350 11669ft 301kts
04-Jan-19 14:44 47.536479 -122.479130 351 9552ft 289kts
04-Jan-19 14:45 47.612661 -122.504099 336 7358ft 278kts
04-Jan-19 14:46 47.685350 -122.535857 336 5768ft 272kts
04-Jan-19 14:47 47.757455 -122.568969 336 4727ft 263kts
04-Jan-19 14:48 47.797434 -122.514224 125 3942ft 212kts
04-Jan-19 14:49 47.756322 -122.494312 156 3150ft 155kts
04-Jan-19 14:50 47.718239 -122.462467 156 3003ft 163kts
04-Jan-19 14:51 47.677402 -122.427764 155 3002ft 173kts
04-Jan-19 14:52 47.639111 -122.394919 155 2263ft 140kts
04-Jan-19 14:53 47.608602 -122.369164 155 1599ft 101kts
04-Jan-19 14:54 47.587545 -122.347040 160 1180ft 96kts
04-Jan-19 14:55 47.563741 -122.331089 157 671ft 104kts
04-Jan-19 14:56 47.540422 -122.311330 157 72ft 92kts
04-Jan-19 14:57 47.530514 -122.301534 58 23ft 6kts
04-Jan-19 14:58 47.528189 -122.298319 188 23ft 15kts
04-Jan-19 14:59 47.526726 -122.297139 341 23ft 4kts
04-Jan-19 15:00 47.526856 -122.297239 331 23ft 0kts
04-Jan-19 15:01 47.526856 -122.297239 331 23ft 0kts
04-Jan-19 15:02 47.526856 -122.297239 331 23ft 0kts
04-Jan-19 15:03 47.526856 -122.297239 331 23ft 0kts
04-Jan-19 15:04 47.526856 -122.297239 331 23ft 0kts

Navigation Log

Ident Type
Flight plan parsing failed, navigation log unavailable